LRC454 YBUD-YBBN
Flight info
| Callsign | LRC454 |
|---|---|
| Flight time | 0h 45m |
| Altitude | 15000 |
| Route | BUD V315 OTLEB V307 BN |
| Aircraft | SF34/M-SDFGR/S |
Departure
| Time | 2026-05-04 02:48 |
|---|---|
| Airport | Bundaberg Airport (YBUD) |
Arrival
| Time | 2026-05-04 03:33 |
|---|---|
| Airport | Brisbane International Airport (YBBN) |
| Time | Latitude | Longitude | Altitude | Speed | Heading |
|---|---|---|---|---|---|
| 2026-05-04 02:42 | -24.89875 | 152.32069 | 109 ft | 0 kts | 68° |
| 2026-05-04 02:46 | -24.89878 | 152.32075 | 101 ft | 2 kts | 162° |
| 2026-05-04 02:46 | -24.89890 | 152.32036 | 101 ft | 10 kts | 273° |
| 2026-05-04 02:46 | -24.89911 | 152.31966 | 101 ft | 2 kts | 236° |
| 2026-05-04 02:46 | -24.89917 | 152.31957 | 101 ft | 0 kts | 237° |
| 2026-05-04 02:47 | -24.89932 | 152.31932 | 100 ft | 11 kts | 237° |
| 2026-05-04 02:47 | -24.89955 | 152.31898 | 100 ft | 5 kts | 213° |
| 2026-05-04 02:47 | -24.90060 | 152.31955 | 100 ft | 45 kts | 147° |
| 2026-05-04 02:48 | -24.90520 | 152.32273 | 106 ft | 111 kts | 148° |
| 2026-05-04 02:48 | -24.91315 | 152.32834 | 373 ft | 153 kts | 144° |
| 2026-05-04 02:48 | -24.92245 | 152.33550 | 920 ft | 168 kts | 143° |
| 2026-05-04 02:48 | -24.93186 | 152.34321 | 1776 ft | 165 kts | 140° |
| 2026-05-04 02:49 | -24.94038 | 152.35158 | 2742 ft | 153 kts | 134° |
| 2026-05-04 02:49 | -24.94693 | 152.35959 | 3898 ft | 134 kts | 127° |
| 2026-05-04 02:49 | -24.95220 | 152.36813 | 4761 ft | 135 kts | 120° |
| 2026-05-04 02:49 | -24.95649 | 152.37745 | 5595 ft | 137 kts | 113° |
| 2026-05-04 02:50 | -24.95980 | 152.38760 | 6346 ft | 143 kts | 107° |
| 2026-05-04 02:50 | -24.96302 | 152.39791 | 7102 ft | 145 kts | 126° |
| 2026-05-04 02:50 | -24.97175 | 152.40284 | 7815 ft | 153 kts | 179° |
| 2026-05-04 02:50 | -24.98162 | 152.39843 | 8603 ft | 157 kts | 214° |
| 2026-05-04 02:51 | -24.99071 | 152.39162 | 9429 ft | 158 kts | 213° |
| 2026-05-04 02:51 | -24.99988 | 152.38481 | 10225 ft | 160 kts | 216° |
| 2026-05-04 02:51 | -25.00909 | 152.37794 | 10972 ft | 160 kts | 217° |
| 2026-05-04 02:51 | -25.01829 | 152.37103 | 11725 ft | 160 kts | 219° |
| 2026-05-04 02:52 | -25.02748 | 152.36414 | 12488 ft | 160 kts | 218° |
| 2026-05-04 02:52 | -25.03671 | 152.35718 | 13223 ft | 165 kts | 219° |
| 2026-05-04 02:52 | -25.04699 | 152.35032 | 13830 ft | 179 kts | 200° |
| 2026-05-04 02:52 | -25.05957 | 152.35011 | 14504 ft | 187 kts | 174° |
| 2026-05-04 02:53 | -25.07254 | 152.35304 | 15151 ft | 192 kts | 172° |
| 2026-05-04 02:53 | -25.08577 | 152.35566 | 15820 ft | 195 kts | 175° |
| 2026-05-04 02:53 | -25.09926 | 152.35830 | 16483 ft | 199 kts | 175° |
| 2026-05-04 02:53 | -25.11314 | 152.36104 | 16967 ft | 216 kts | 176° |
| 2026-05-04 02:54 | -25.12962 | 152.36412 | 16794 ft | 263 kts | 174° |
| 2026-05-04 02:54 | -25.14890 | 152.36805 | 16598 ft | 298 kts | 173° |
| 2026-05-04 02:54 | -25.17014 | 152.37230 | 16410 ft | 319 kts | 173° |
| 2026-05-04 02:54 | -25.19246 | 152.37663 | 16221 ft | 331 kts | 173° |
| 2026-05-04 02:55 | -25.23800 | 152.38573 | 15825 ft | 323 kts | 173° |
| 2026-05-04 02:55 | -25.25981 | 152.39000 | 15614 ft | 316 kts | 173° |
| 2026-05-04 02:55 | -25.28135 | 152.39427 | 15398 ft | 313 kts | 172° |
| 2026-05-04 02:56 | -25.30246 | 152.39846 | 15191 ft | 312 kts | 173° |
| 2026-05-04 02:56 | -25.32375 | 152.40266 | 15069 ft | 308 kts | 173° |
| 2026-05-04 02:56 | -25.34470 | 152.40683 | 15030 ft | 304 kts | 172° |
| 2026-05-04 02:56 | -25.36542 | 152.41092 | 15011 ft | 302 kts | 173° |
| 2026-05-04 02:57 | -25.38605 | 152.41501 | 14986 ft | 300 kts | 172° |
| 2026-05-04 02:57 | -25.40652 | 152.41909 | 14992 ft | 299 kts | 173° |
| 2026-05-04 02:57 | -25.42698 | 152.42313 | 15036 ft | 297 kts | 173° |
| 2026-05-04 02:57 | -25.44732 | 152.42717 | 15041 ft | 297 kts | 173° |
| 2026-05-04 02:58 | -25.46771 | 152.43123 | 15040 ft | 299 kts | 173° |
| 2026-05-04 02:58 | -25.48845 | 152.43533 | 15045 ft | 305 kts | 173° |
| 2026-05-04 02:58 | -25.50943 | 152.43951 | 15049 ft | 308 kts | 172° |
| 2026-05-04 02:58 | -25.53058 | 152.44372 | 15056 ft | 309 kts | 173° |
| 2026-05-04 02:59 | -25.55179 | 152.44792 | 15053 ft | 311 kts | 172° |
| 2026-05-04 02:59 | -25.57310 | 152.45217 | 15056 ft | 311 kts | 172° |
| 2026-05-04 02:59 | -25.59437 | 152.45640 | 15054 ft | 311 kts | 172° |
| 2026-05-04 02:59 | -25.61570 | 152.46064 | 15054 ft | 312 kts | 172° |
| 2026-05-04 03:00 | -25.63704 | 152.46490 | 15056 ft | 312 kts | 173° |
| 2026-05-04 03:00 | -25.65842 | 152.46915 | 15058 ft | 312 kts | 173° |
| 2026-05-04 03:00 | -25.67978 | 152.47340 | 15057 ft | 312 kts | 172° |
| 2026-05-04 03:00 | -25.70109 | 152.47766 | 15058 ft | 312 kts | 173° |
| 2026-05-04 03:01 | -25.72249 | 152.48192 | 15052 ft | 312 kts | 172° |
| 2026-05-04 03:01 | -25.74386 | 152.48619 | 15055 ft | 312 kts | 172° |
| 2026-05-04 03:01 | -25.76522 | 152.49045 | 15061 ft | 312 kts | 173° |
| 2026-05-04 03:01 | -25.78660 | 152.49471 | 15061 ft | 312 kts | 172° |
| 2026-05-04 03:02 | -25.80798 | 152.49899 | 15060 ft | 312 kts | 173° |
| 2026-05-04 03:02 | -25.82936 | 152.50325 | 15061 ft | 312 kts | 172° |
| 2026-05-04 03:02 | -25.85045 | 152.50748 | 15061 ft | 312 kts | 172° |
| 2026-05-04 03:02 | -25.87214 | 152.51181 | 15066 ft | 313 kts | 173° |
| 2026-05-04 03:03 | -25.89360 | 152.51610 | 15061 ft | 313 kts | 172° |
| 2026-05-04 03:03 | -25.91476 | 152.52033 | 15063 ft | 313 kts | 173° |
| 2026-05-04 03:03 | -25.93618 | 152.52463 | 15062 ft | 313 kts | 172° |
| 2026-05-04 03:03 | -25.95758 | 152.52890 | 15062 ft | 312 kts | 173° |
| 2026-05-04 03:04 | -25.97892 | 152.53318 | 15062 ft | 312 kts | 173° |
| 2026-05-04 03:04 | -26.00032 | 152.53747 | 15065 ft | 312 kts | 173° |
| 2026-05-04 03:04 | -26.02174 | 152.54176 | 15067 ft | 312 kts | 173° |
| 2026-05-04 03:04 | -26.04309 | 152.54603 | 15064 ft | 312 kts | 172° |
| 2026-05-04 03:05 | -26.06450 | 152.55034 | 15062 ft | 312 kts | 173° |
| 2026-05-04 03:05 | -26.08586 | 152.55461 | 15063 ft | 312 kts | 173° |
| 2026-05-04 03:05 | -26.10726 | 152.55892 | 15065 ft | 312 kts | 172° |
| 2026-05-04 03:05 | -26.12862 | 152.56320 | 15065 ft | 312 kts | 173° |
| 2026-05-04 03:06 | -26.15000 | 152.56750 | 15067 ft | 312 kts | 172° |
| 2026-05-04 03:06 | -26.17139 | 152.57180 | 15068 ft | 312 kts | 173° |
| 2026-05-04 03:06 | -26.19278 | 152.57609 | 15066 ft | 312 kts | 172° |
| 2026-05-04 03:06 | -26.21415 | 152.58040 | 15073 ft | 312 kts | 172° |
| 2026-05-04 03:07 | -26.23556 | 152.58470 | 15061 ft | 312 kts | 173° |
| 2026-05-04 03:07 | -26.25681 | 152.58898 | 15067 ft | 311 kts | 172° |
| 2026-05-04 03:07 | -26.27816 | 152.59329 | 15070 ft | 312 kts | 172° |
| 2026-05-04 03:07 | -26.29952 | 152.59759 | 15070 ft | 312 kts | 173° |
| 2026-05-04 03:08 | -26.32080 | 152.60185 | 15068 ft | 310 kts | 172° |
| 2026-05-04 03:08 | -26.34208 | 152.60616 | 15071 ft | 311 kts | 172° |
| 2026-05-04 03:08 | -26.36337 | 152.61047 | 15073 ft | 311 kts | 172° |
| 2026-05-04 03:08 | -26.38463 | 152.61473 | 15072 ft | 311 kts | 173° |
| 2026-05-04 03:09 | -26.40593 | 152.61901 | 15078 ft | 312 kts | 172° |
| 2026-05-04 03:09 | -26.42727 | 152.62336 | 15077 ft | 312 kts | 172° |
| 2026-05-04 03:09 | -26.44834 | 152.62758 | 15078 ft | 312 kts | 173° |
| 2026-05-04 03:09 | -26.46976 | 152.63193 | 15078 ft | 312 kts | 173° |
| 2026-05-04 03:10 | -26.49114 | 152.63625 | 15077 ft | 312 kts | 173° |
| 2026-05-04 03:10 | -26.51250 | 152.64055 | 15076 ft | 312 kts | 172° |
| 2026-05-04 03:10 | -26.53389 | 152.64489 | 15077 ft | 312 kts | 172° |
| 2026-05-04 03:10 | -26.55530 | 152.64925 | 15080 ft | 312 kts | 172° |
| 2026-05-04 03:11 | -26.57670 | 152.65352 | 15075 ft | 312 kts | 173° |
| 2026-05-04 03:11 | -26.59808 | 152.65786 | 15081 ft | 312 kts | 172° |
| 2026-05-04 03:11 | -26.61946 | 152.66222 | 15077 ft | 311 kts | 173° |
| 2026-05-04 03:11 | -26.64077 | 152.66653 | 15081 ft | 312 kts | 172° |
| 2026-05-04 03:12 | -26.66168 | 152.67282 | 15078 ft | 314 kts | 156° |
| 2026-05-04 03:12 | -26.67906 | 152.68761 | 15077 ft | 316 kts | 133° |
| 2026-05-04 03:12 | -26.69447 | 152.70509 | 15075 ft | 316 kts | 141° |
| 2026-05-04 03:12 | -26.71285 | 152.71829 | 15075 ft | 315 kts | 154° |
| 2026-05-04 03:13 | -26.73205 | 152.73013 | 15074 ft | 315 kts | 150° |
| 2026-05-04 03:13 | -26.75023 | 152.74361 | 15079 ft | 316 kts | 146° |
| 2026-05-04 03:13 | -26.76711 | 152.75710 | 15080 ft | 317 kts | 146° |
| 2026-05-04 03:13 | -26.78537 | 152.77063 | 15077 ft | 316 kts | 149° |
| 2026-05-04 03:14 | -26.80251 | 152.78281 | 15085 ft | 317 kts | 148° |
| 2026-05-04 03:14 | -26.81477 | 152.79203 | 15082 ft | 317 kts | 147° |
| 2026-05-04 03:14 | -26.83305 | 152.80583 | 15084 ft | 317 kts | 148° |
| 2026-05-04 03:14 | -26.85793 | 152.82385 | 14869 ft | 324 kts | 148° |
| 2026-05-04 03:15 | -26.87031 | 152.83314 | 14636 ft | 314 kts | 147° |
| 2026-05-04 03:15 | -26.88723 | 152.84581 | 14267 ft | 273 kts | 148° |
| 2026-05-04 03:15 | -26.90261 | 152.85611 | 13782 ft | 243 kts | 155° |
| 2026-05-04 03:15 | -26.91737 | 152.86421 | 13249 ft | 233 kts | 156° |
| 2026-05-04 03:16 | -26.93178 | 152.87177 | 12729 ft | 229 kts | 164° |
| 2026-05-04 03:16 | -26.94843 | 152.87344 | 12235 ft | 250 kts | 186° |
| 2026-05-04 03:16 | -26.96607 | 152.87254 | 11750 ft | 258 kts | 182° |
| 2026-05-04 03:16 | -26.98411 | 152.87377 | 11280 ft | 259 kts | 176° |
| 2026-05-04 03:17 | -27.00200 | 152.87583 | 10813 ft | 257 kts | 176° |
| 2026-05-04 03:17 | -27.01973 | 152.87715 | 10355 ft | 254 kts | 178° |
| 2026-05-04 03:17 | -27.03728 | 152.87827 | 9889 ft | 250 kts | 175° |
| 2026-05-04 03:17 | -27.05448 | 152.87982 | 9377 ft | 247 kts | 175° |
| 2026-05-04 03:18 | -27.07157 | 152.88107 | 8873 ft | 245 kts | 176° |
| 2026-05-04 03:18 | -27.08848 | 152.88234 | 8373 ft | 243 kts | 175° |
| 2026-05-04 03:18 | -27.10524 | 152.88370 | 7884 ft | 240 kts | 175° |
| 2026-05-04 03:18 | -27.12186 | 152.88496 | 7397 ft | 238 kts | 174° |
| 2026-05-04 03:19 | -27.13788 | 152.88848 | 6925 ft | 235 kts | 162° |
| 2026-05-04 03:19 | -27.15316 | 152.89392 | 6462 ft | 232 kts | 161° |
| 2026-05-04 03:19 | -27.16873 | 152.89869 | 6002 ft | 230 kts | 165° |
| 2026-05-04 03:19 | -27.18423 | 152.90268 | 5755 ft | 234 kts | 165° |
| 2026-05-04 03:20 | -27.20039 | 152.90747 | 5509 ft | 244 kts | 164° |
| 2026-05-04 03:20 | -27.21582 | 152.91187 | 5290 ft | 246 kts | 165° |
| 2026-05-04 03:20 | -27.23282 | 152.91655 | 5096 ft | 246 kts | 164° |
| 2026-05-04 03:20 | -27.24925 | 152.92131 | 5043 ft | 242 kts | 164° |
| 2026-05-04 03:21 | -27.26549 | 152.92592 | 5019 ft | 239 kts | 164° |
| 2026-05-04 03:21 | -27.28158 | 152.93046 | 5005 ft | 238 kts | 164° |
| 2026-05-04 03:21 | -27.29756 | 152.93503 | 5006 ft | 238 kts | 165° |
| 2026-05-04 03:21 | -27.31363 | 152.93959 | 5006 ft | 237 kts | 165° |
| 2026-05-04 03:22 | -27.32970 | 152.94416 | 5003 ft | 239 kts | 164° |
| 2026-05-04 03:22 | -27.34583 | 152.94874 | 5002 ft | 240 kts | 164° |
| 2026-05-04 03:22 | -27.36201 | 152.95334 | 5002 ft | 240 kts | 165° |
| 2026-05-04 03:22 | -27.37818 | 152.95795 | 5006 ft | 240 kts | 165° |
| 2026-05-04 03:23 | -27.39435 | 152.96256 | 5007 ft | 240 kts | 164° |
| 2026-05-04 03:23 | -27.41054 | 152.96717 | 5004 ft | 240 kts | 164° |
| 2026-05-04 03:23 | -27.42674 | 152.97177 | 5009 ft | 239 kts | 165° |
| 2026-05-04 03:23 | -27.44303 | 152.97178 | 5002 ft | 234 kts | 195° |
| 2026-05-04 03:24 | -27.45648 | 152.96212 | 4996 ft | 231 kts | 228° |
| 2026-05-04 03:24 | -27.46675 | 152.94844 | 4991 ft | 228 kts | 221° |
| 2026-05-04 03:24 | -27.48010 | 152.93897 | 4986 ft | 227 kts | 205° |
| 2026-05-04 03:24 | -27.49424 | 152.93117 | 4999 ft | 227 kts | 205° |
| 2026-05-04 03:25 | -27.50802 | 152.92241 | 4994 ft | 228 kts | 210° |
| 2026-05-04 03:25 | -27.52163 | 152.91319 | 4990 ft | 228 kts | 209° |
| 2026-05-04 03:25 | -27.53545 | 152.90447 | 4999 ft | 227 kts | 208° |
| 2026-05-04 03:25 | -27.54918 | 152.89555 | 4995 ft | 227 kts | 210° |
| 2026-05-04 03:26 | -27.56420 | 152.89036 | 4997 ft | 230 kts | 179° |
| 2026-05-04 03:26 | -27.57939 | 152.89534 | 5003 ft | 230 kts | 145° |
| 2026-05-04 03:26 | -27.59162 | 152.90679 | 5003 ft | 228 kts | 134° |
| 2026-05-04 03:26 | -27.60071 | 152.92136 | 4810 ft | 216 kts | 121° |
| 2026-05-04 03:27 | -27.60863 | 152.93463 | 4550 ft | 203 kts | 125° |
| 2026-05-04 03:27 | -27.61436 | 152.94884 | 4291 ft | 200 kts | 95° |
| 2026-05-04 03:27 | -27.61126 | 152.96374 | 4096 ft | 198 kts | 56° |
| 2026-05-04 03:27 | -27.60195 | 152.97475 | 4037 ft | 192 kts | 49° |
| 2026-05-04 03:28 | -27.59431 | 152.98666 | 4005 ft | 189 kts | 47° |
| 2026-05-04 03:28 | -27.58264 | 152.99263 | 4010 ft | 192 kts | 1° |
| 2026-05-04 03:28 | -27.56975 | 152.98931 | 4001 ft | 189 kts | 351° |
| 2026-05-04 03:28 | -27.55805 | 152.98259 | 3943 ft | 190 kts | 333° |
| 2026-05-04 03:29 | -27.54596 | 152.98098 | 4314 ft | 176 kts | 18° |
| 2026-05-04 03:29 | -27.53538 | 152.98932 | 3844 ft | 201 kts | 51° |
| 2026-05-04 03:29 | -27.52717 | 153.00235 | 3434 ft | 204 kts | 58° |
| 2026-05-04 03:29 | -27.51922 | 153.01531 | 3180 ft | 199 kts | 54° |
| 2026-05-04 03:30 | -27.51014 | 153.02716 | 2813 ft | 198 kts | 48° |
| 2026-05-04 03:30 | -27.50026 | 153.03798 | 2564 ft | 197 kts | 41° |
| 2026-05-04 03:30 | -27.48871 | 153.04635 | 2306 ft | 198 kts | 31° |
| 2026-05-04 03:30 | -27.47712 | 153.05317 | 2012 ft | 173 kts | 28° |
| 2026-05-04 03:31 | -27.46724 | 153.05857 | 1854 ft | 145 kts | 30° |
| 2026-05-04 03:31 | -27.45763 | 153.06367 | 1769 ft | 158 kts | 31° |
| 2026-05-04 03:31 | -27.44758 | 153.06927 | 1602 ft | 165 kts | 30° |
| 2026-05-04 03:31 | -27.43713 | 153.07520 | 1307 ft | 171 kts | 30° |
| 2026-05-04 03:32 | -27.42664 | 153.08138 | 1095 ft | 170 kts | 32° |
| 2026-05-04 03:32 | -27.41694 | 153.08731 | 773 ft | 142 kts | 32° |
| 2026-05-04 03:32 | -27.40838 | 153.09207 | 619 ft | 139 kts | 31° |
| 2026-05-04 03:32 | -27.39968 | 153.09700 | 453 ft | 143 kts | 32° |
| 2026-05-04 03:33 | -27.39095 | 153.10225 | 290 ft | 141 kts | 32° |
| 2026-05-04 03:33 | -27.38237 | 153.10711 | 59 ft | 134 kts | 32° |
| 2026-05-04 03:33 | -27.37483 | 153.11164 | 16 ft | 109 kts | 30° |
| 2026-05-04 03:33 | -27.37023 | 153.11418 | 15 ft | 43 kts | 27° |
| 2026-05-04 03:34 | -27.36783 | 153.11572 | 14 ft | 28 kts | 43° |
| 2026-05-04 03:34 | -27.36681 | 153.11720 | 13 ft | 27 kts | 60° |
| 2026-05-04 03:34 | -27.36638 | 153.11806 | 13 ft | 16 kts | 64° |
| 2026-05-04 03:34 | -27.36644 | 153.11909 | 14 ft | 13 kts | 122° |
| 2026-05-04 03:35 | -27.36740 | 153.11903 | 13 ft | 20 kts | 211° |
| 2026-05-04 03:35 | -27.36898 | 153.11813 | 13 ft | 31 kts | 205° |
| 2026-05-04 03:35 | -27.37077 | 153.11711 | 14 ft | 30 kts | 207° |
| 2026-05-04 03:35 | -27.37283 | 153.11602 | 13 ft | 30 kts | 176° |
| 2026-05-04 03:36 | -27.37406 | 153.11793 | 13 ft | 34 kts | 116° |
| 2026-05-04 03:36 | -27.37523 | 153.12047 | 13 ft | 39 kts | 116° |
| 2026-05-04 03:36 | -27.37630 | 153.12285 | 13 ft | 31 kts | 117° |
| 2026-05-04 03:36 | -27.37742 | 153.12524 | 13 ft | 38 kts | 117° |
| 2026-05-04 03:37 | -27.37850 | 153.12764 | 13 ft | 29 kts | 114° |
| 2026-05-04 03:37 | -27.37968 | 153.12914 | 14 ft | 24 kts | 189° |
| 2026-05-04 03:37 | -27.38117 | 153.12829 | 15 ft | 30 kts | 205° |
| 2026-05-04 03:37 | -27.38326 | 153.12716 | 16 ft | 30 kts | 212° |
| 2026-05-04 03:38 | -27.38448 | 153.12645 | 15 ft | 22 kts | 209° |
| 2026-05-04 03:38 | -27.38621 | 153.12541 | 14 ft | 34 kts | 207° |
| 2026-05-04 03:38 | -27.38857 | 153.12405 | 14 ft | 35 kts | 208° |
| 2026-05-04 03:38 | -27.39095 | 153.12270 | 15 ft | 27 kts | 208° |
| 2026-05-04 03:39 | -27.39092 | 153.12146 | 14 ft | 23 kts | 330° |
| 2026-05-04 03:39 | -27.38979 | 153.11991 | 13 ft | 23 kts | 300° |
| 2026-05-04 03:39 | -27.38900 | 153.11821 | 13 ft | 15 kts | 311° |
| 2026-05-04 03:39 | -27.38796 | 153.11791 | 13 ft | 15 kts | 26° |
| 2026-05-04 03:40 | -27.38743 | 153.11826 | 13 ft | 3 kts | 53° |
| 2026-05-04 03:40 | -27.38737 | 153.11838 | 15 ft | 2 kts | 59° |
| 2026-05-04 03:40 | -27.38735 | 153.11842 | 14 ft | 0 kts | 59° |